Time;durP1;ratioP1;P1;durP2;ratioP2;P2;SDS_P1;SDS_P2;PMS_P1;PMS_P2;Temp;Humidity;BMP_temperature;BMP_pressure;BME280_temperature;BME280_humidity;BME280_pressure;Samples;Min_cycle;Max_cycle;Signal;HPM_P1;HPM_P2
2021/10/20 00:01:51;;;;;;;2.75;0.40;;;11.00;56.60;;;;;;5008316;28;20611;-80
2021/10/20 00:04:17;;;;;;;2.05;0.73;;;11.00;56.50;;;;;;5008519;28;20539;-79
2021/10/20 00:06:43;;;;;;;0.60;0.40;;;10.90;56.50;;;;;;4991119;28;20033;-78
2021/10/20 00:09:10;;;;;;;0.57;0.40;;;10.90;56.60;;;;;;5009123;28;20046;-79
2021/10/20 00:11:37;;;;;;;1.02;0.52;;;10.90;56.40;;;;;;4999115;28;20128;-79
2021/10/20 00:14:03;;;;;;;1.50;0.50;;;10.80;56.50;;;;;;5008919;28;20030;-80
2021/10/20 00:16:29;;;;;;;0.70;0.47;;;10.80;56.50;;;;;;4990726;28;20030;-80
2021/10/20 00:18:56;;;;;;;0.88;0.52;;;10.80;56.50;;;;;;5008474;28;20036;-82
2021/10/20 00:21:24;;;;;;;1.92;0.50;;;10.80;56.70;;;;;;5007981;28;20495;-81
2021/10/20 00:23:51;;;;;;;0.40;0.38;;;10.80;56.90;;;;;;4990487;28;20038;-81
2021/10/20 00:26:17;;;;;;;0.90;0.60;;;10.80;57.10;;;;;;5006245;28;20040;-82
2021/10/20 00:28:43;;;;;;;4.68;0.75;;;10.80;57.30;;;;;;5007594;28;20428;-81
2021/10/20 00:31:09;;;;;;;0.80;0.60;;;10.80;57.30;;;;;;5007380;28;20049;-80
2021/10/20 00:33:35;;;;;;;0.75;0.40;;;10.80;57.50;;;;;;5008148;28;20034;-81
2021/10/20 00:36:01;;;;;;;3.75;0.50;;;10.80;57.30;;;;;;5007362;28;20678;-80
2021/10/20 00:38:27;;;;;;;0.52;0.43;;;10.80;57.20;;;;;;5006769;28;20061;-81
2021/10/20 00:40:53;;;;;;;0.60;0.40;;;10.80;57.10;;;;;;4972993;28;20393;-82
2021/10/20 00:43:21;;;;;;;1.60;0.55;;;10.80;57.00;;;;;;5007800;28;20025;-82
2021/10/20 00:45:47;;;;;;;1.65;0.73;;;10.80;56.80;;;;;;5007883;28;20093;-80
2021/10/20 00:48:14;;;;;;;0.82;0.55;;;10.80;56.60;;;;;;4973340;28;20025;-82
2021/10/20 00:50:40;;;;;;;0.90;0.50;;;10.80;56.60;;;;;;4989835;28;20042;-83
2021/10/20 00:53:06;;;;;;;0.47;0.47;;;10.80;56.60;;;;;;5008126;28;20377;-82
2021/10/20 00:55:33;;;;;;;0.60;0.50;;;10.70;56.60;;;;;;4997992;28;20041;-80
2021/10/20 00:57:59;;;;;;;1.40;0.43;;;10.70;56.50;;;;;;4997880;28;20065;-82
2021/10/20 01:00:25;;;;;;;0.85;0.50;;;10.70;56.40;;;;;;5006047;28;20041;-82
2021/10/20 01:02:53;;;;;;;0.95;0.50;;;10.70;56.40;;;;;;4990439;28;20112;-82
2021/10/20 01:05:19;;;;;;;0.60;0.40;;;10.70;56.50;;;;;;5006237;28;20119;-83
2021/10/20 01:07:45;;;;;;;0.88;0.50;;;10.70;56.50;;;;;;5007275;28;20042;-81
2021/10/20 01:10:12;;;;;;;1.45;0.70;;;10.60;56.50;;;;;;5007838;28;20515;-82
2021/10/20 01:12:39;;;;;;;0.55;0.30;;;10.70;56.50;;;;;;5007283;28;20048;-81
2021/10/20 01:15:18;;;;;;;0.93;0.32;;;10.70;56.30;;;;;;5006768;28;20084;-81
2021/10/20 01:17:45;;;;;;;0.93;0.57;;;10.70;56.40;;;;;;5007759;28;20029;-81
2021/10/20 01:20:11;;;;;;;2.08;0.55;;;10.70;56.40;;;;;;5006213;28;20112;-82
2021/10/20 01:22:37;;;;;;;0.73;0.55;;;10.70;56.50;;;;;;5007465;28;20045;-81
2021/10/20 01:25:04;;;;;;;1.33;0.50;;;10.60;56.40;;;;;;5007747;28;20034;-82
2021/10/20 01:27:30;;;;;;;0.32;0.30;;;10.60;56.40;;;;;;5007627;28;20080;-81
2021/10/20 01:29:58;;;;;;;1.17;0.50;;;10.60;56.40;;;;;;4980324;28;20038;-81
2021/10/20 01:32:26;;;;;;;1.05;0.52;;;10.60;56.20;;;;;;5007653;28;20076;-81
2021/10/20 01:34:53;;;;;;;0.82;0.60;;;10.60;56.30;;;;;;4989493;28;20041;-81
2021/10/20 01:37:21;;;;;;;0.70;0.40;;;10.60;56.30;;;;;;5007496;28;20030;-81
2021/10/20 01:39:48;;;;;;;1.17;0.50;;;10.60;56.10;;;;;;5007007;28;20488;-81
2021/10/20 01:42:14;;;;;;;0.75;0.60;;;10.50;56.00;;;;;;5008026;28;20113;-81
2021/10/20 01:44:40;;;;;;;0.40;0.40;;;10.60;56.00;;;;;;4989890;28;20042;-82
2021/10/20 01:47:06;;;;;;;0.73;0.50;;;10.60;55.90;;;;;;5007287;28;20124;-82
2021/10/20 01:49:32;;;;;;;1.20;0.63;;;10.50;55.90;;;;;;4993080;28;20795;-82
2021/10/20 01:51:58;;;;;;;1.48;0.50;;;10.50;55.90;;;;;;5011462;28;20045;-81
2021/10/20 01:54:24;;;;;;;1.02;0.50;;;10.50;55.90;;;;;;5011354;28;20100;-80
2021/10/20 01:56:50;;;;;;;0.73;0.57;;;10.50;56.00;;;;;;5011378;28;20022;-82
2021/10/20 01:59:16;;;;;;;0.60;0.40;;;10.40;55.90;;;;;;5011126;28;20056;-82
2021/10/20 02:01:42;;;;;;;0.80;0.73;;;10.40;55.90;;;;;;4992782;28;20030;-81
2021/10/20 02:04:10;;;;;;;1.45;0.50;;;10.40;55.80;;;;;;5010466;28;20049;-81
2021/10/20 02:06:36;;;;;;;1.73;0.50;;;10.40;56.40;;;;;;4992766;28;20038;-82
2021/10/20 02:09:05;;;;;;;1.02;0.55;;;10.40;55.90;;;;;;5010569;28;20036;-81
2021/10/20 02:11:31;;;;;;;1.17;0.55;;;10.40;55.70;;;;;;4987883;28;20056;-82
2021/10/20 02:13:57;;;;;;;0.40;0.38;;;10.30;55.60;;;;;;4991665;28;20037;-82
2021/10/20 02:16:22;;;;;;;1.27;0.50;;;10.30;55.60;;;;;;4988724;28;20116;-82
2021/10/20 02:18:48;;;;;;;1.35;0.63;;;10.30;55.50;;;;;;4992152;28;20026;-81
2021/10/20 02:21:16;;;;;;;1.25;0.60;;;10.30;55.70;;;;;;5010521;28;20026;-81
2021/10/20 02:23:42;;;;;;;0.90;0.45;;;10.20;55.60;;;;;;4992274;28;20364;-81
2021/10/20 02:26:08;;;;;;;1.30;0.40;;;10.20;55.70;;;;;;5010198;28;20523;-81
2021/10/20 02:28:33;;;;;;;0.73;0.50;;;10.20;55.90;;;;;;5010586;28;20037;-82
2021/10/20 02:30:59;;;;;;;1.35;0.60;;;10.20;56.00;;;;;;5010491;28;20034;-82
2021/10/20 02:33:25;;;;;;;1.85;0.60;;;10.20;55.90;;;;;;4975958;28;20061;-81
2021/10/20 02:35:51;;;;;;;0.70;0.70;;;10.20;56.10;;;;;;5008413;28;20030;-81
2021/10/20 02:38:17;;;;;;;0.63;0.50;;;10.20;56.00;;;;;;4991260;28;20063;-81
2021/10/20 02:40:43;;;;;;;0.70;0.50;;;10.20;56.00;;;;;;4987767;28;20089;-82
2021/10/20 02:43:09;;;;;;;0.85;0.63;;;10.20;56.10;;;;;;4992113;28;20030;-82
2021/10/20 02:45:35;;;;;;;0.40;0.40;;;10.20;56.10;;;;;;5010321;28;20097;-82
2021/10/20 02:48:01;;;;;;;2.03;0.82;;;10.10;56.10;;;;;;4992348;28;20621;-82
2021/10/20 02:50:29;;;;;;;1.45;0.60;;;10.10;56.10;;;;;;4992212;28;20120;-82
2021/10/20 02:52:56;;;;;;;1.20;0.80;;;10.10;56.00;;;;;;4975529;28;20121;-82
2021/10/20 02:55:22;;;;;;;2.50;0.65;;;10.10;56.00;;;;;;4999511;28;20038;-83
2021/10/20 02:57:48;;;;;;;0.93;0.70;;;10.10;56.10;;;;;;4990847;28;20595;-83
2021/10/20 03:00:14;;;;;;;1.10;0.60;;;10.10;56.00;;;;;;4970416;28;20037;-82
2021/10/20 03:02:40;;;;;;;0.68;0.50;;;10.10;55.90;;;;;;4991781;28;20022;-82
2021/10/20 03:05:06;;;;;;;2.15;0.70;;;10.10;55.90;;;;;;4991068;28;20034;-81
2021/10/20 03:07:33;;;;;;;1.25;0.70;;;10.00;55.90;;;;;;4975791;28;20041;-82
2021/10/20 03:09:59;;;;;;;0.90;0.70;;;10.00;56.00;;;;;;4999446;28;20038;-82
2021/10/20 03:12:25;;;;;;;2.13;0.98;;;10.00;56.00;;;;;;4991978;28;21766;-82
2021/10/20 03:14:51;;;;;;;1.33;0.95;;;10.00;56.00;;;;;;5008825;28;20084;-82
2021/10/20 03:17:16;;;;;;;3.13;0.98;;;9.90;56.10;;;;;;5009537;28;20064;-82
2021/10/20 03:19:45;;;;;;;1.42;0.90;;;9.90;56.10;;;;;;5009225;28;20025;-82
2021/10/20 03:22:12;;;;;;;1.00;0.90;;;9.90;56.10;;;;;;5009407;28;20563;-81
2021/10/20 03:24:37;;;;;;;2.45;1.10;;;9.90;56.20;;;;;;5008357;28;20047;-80
2021/10/20 03:27:03;;;;;;;0.90;0.90;;;9.90;56.20;;;;;;5009475;28;20037;-81
2021/10/20 03:29:29;;;;;;;2.85;0.90;;;9.90;56.30;;;;;;5009063;28;20400;-82
2021/10/20 03:31:55;;;;;;;1.77;1.00;;;9.90;56.40;;;;;;4990613;28;20381;-82
2021/10/20 03:34:21;;;;;;;3.47;0.93;;;9.90;56.30;;;;;;5008956;28;20044;-82
2021/10/20 03:36:47;;;;;;;2.00;0.88;;;9.90;56.40;;;;;;5009046;28;20060;-82
2021/10/20 03:39:13;;;;;;;1.33;1.02;;;9.90;56.40;;;;;;5009200;28;20037;-83
2021/10/20 03:41:39;;;;;;;1.95;0.90;;;9.90;56.40;;;;;;4987625;28;20041;-81
2021/10/20 03:44:04;;;;;;;1.00;0.90;;;9.80;56.40;;;;;;5008423;28;20042;-82
2021/10/20 03:46:30;;;;;;;0.90;0.60;;;9.80;56.40;;;;;;5007652;28;20044;-83
2021/10/20 03:48:56;;;;;;;2.38;1.13;;;9.80;56.40;;;;;;4999009;28;20436;-80
2021/10/20 03:51:22;;;;;;;2.05;1.15;;;9.80;56.40;;;;;;4992856;28;20065;-82
2021/10/20 03:53:48;;;;;;;1.33;1.15;;;9.80;56.30;;;;;;5008772;28;20464;-80
2021/10/20 03:56:14;;;;;;;1.25;0.90;;;9.80;56.30;;;;;;5007016;28;20061;-83
2021/10/20 03:58:40;;;;;;;1.58;1.05;;;9.80;56.20;;;;;;4982415;28;20069;-79
2021/10/20 04:01:06;;;;;;;0.80;0.77;;;9.80;56.10;;;;;;5008204;28;20034;-83
2021/10/20 04:03:32;;;;;;;2.83;1.00;;;9.80;56.20;;;;;;5007918;28;20057;-84
2021/10/20 04:05:57;;;;;;;1.52;0.95;;;9.70;56.00;;;;;;5008294;28;20042;-82
2021/10/20 04:08:23;;;;;;;3.63;1.10;;;9.80;55.80;;;;;;4989187;28;20420;-82
2021/10/20 04:10:50;;;;;;;2.63;1.02;;;9.80;55.60;;;;;;5007729;28;20030;-81
2021/10/20 04:13:16;;;;;;;1.27;1.00;;;9.80;55.50;;;;;;4990116;28;20034;-84
2021/10/20 04:15:42;;;;;;;2.25;1.17;;;9.80;55.50;;;;;;4980493;28;20026;-83
2021/10/20 04:18:07;;;;;;;0.70;0.70;;;9.80;55.50;;;;;;4981963;28;20041;-83
2021/10/20 04:20:33;;;;;;;1.73;1.38;;;9.80;55.50;;;;;;5007813;28;20047;-84
2021/10/20 04:22:59;;;;;;;2.40;1.10;;;9.80;55.50;;;;;;5008226;28;20026;-83
2021/10/20 04:25:25;;;;;;;2.17;1.13;;;9.80;55.50;;;;;;5007931;28;20220;-84
2021/10/20 04:27:52;;;;;;;1.25;1.08;;;9.80;55.50;;;;;;5007488;28;20473;-82
2021/10/20 04:30:19;;;;;;;1.10;1.00;;;9.80;55.40;;;;;;4996359;28;20049;-82
2021/10/20 04:32:45;;;;;;;1.48;1.38;;;9.70;55.50;;;;;;5008293;28;20033;-83
2021/10/20 04:35:12;;;;;;;1.20;1.10;;;9.70;56.10;;;;;;5008020;28;20046;-85
2021/10/20 04:37:39;;;;;;;1.10;1.00;;;9.80;55.60;;;;;;5007246;28;20033;-83
2021/10/20 04:40:06;;;;;;;1.92;1.38;;;9.70;55.60;;;;;;5007736;28;20441;-83
2021/10/20 04:42:33;;;;;;;2.00;1.45;;;9.70;55.70;;;;;;5007842;28;20870;-84
2021/10/20 04:44:59;;;;;;;1.85;1.40;;;9.70;55.60;;;;;;5009772;28;20034;-84
2021/10/20 04:47:25;;;;;;;1.45;1.35;;;9.70;55.50;;;;;;4990164;28;20052;-83
2021/10/20 04:49:52;;;;;;;1.63;1.25;;;9.70;55.40;;;;;;5007401;28;20033;-82
2021/10/20 04:52:22;;;;;;;2.55;1.52;;;9.70;55.40;;;;;;4972512;28;20044;-82
2021/10/20 04:54:49;;;;;;;2.20;1.88;;;9.70;55.20;;;;;;5007785;28;20088;-79
2021/10/20 04:57:14;;;;;;;1.27;1.17;;;9.80;55.10;;;;;;5008267;28;20464;-81
2021/10/20 04:59:40;;;;;;;1.52;1.20;;;9.80;55.10;;;;;;5008139;28;20642;-81
2021/10/20 05:02:06;;;;;;;1.75;1.40;;;9.80;55.10;;;;;;4988729;28;20080;-80
2021/10/20 05:04:32;;;;;;;2.08;1.40;;;9.80;55.00;;;;;;5007237;28;20049;-79
2021/10/20 05:06:58;;;;;;;1.80;1.20;;;9.80;55.00;;;;;;5006930;28;20601;-82
2021/10/20 05:09:24;;;;;;;1.90;1.70;;;9.80;55.00;;;;;;5007664;28;20084;-79
2021/10/20 05:11:50;;;;;;;2.53;1.60;;;9.80;55.10;;;;;;5006184;28;20029;-81
2021/10/20 05:14:16;;;;;;;2.35;1.60;;;9.90;55.10;;;;;;4997052;28;20388;-81
2021/10/20 05:16:42;;;;;;;3.80;1.60;;;10.00;55.00;;;;;;5007531;28;20033;-81
2021/10/20 05:19:09;;;;;;;2.35;1.45;;;10.10;54.80;;;;;;4981171;28;20030;-80
2021/10/20 05:21:35;;;;;;;2.90;1.50;;;10.20;54.60;;;;;;4976800;28;20389;-81
2021/10/20 05:24:00;;;;;;;1.95;1.45;;;10.30;54.50;;;;;;4993523;28;20503;-81
2021/10/20 05:26:26;;;;;;;2.63;1.58;;;10.50;54.40;;;;;;4993118;28;20048;-82
2021/10/20 05:28:52;;;;;;;2.80;1.40;;;10.60;54.20;;;;;;5009990;28;20046;-82
2021/10/20 05:31:18;;;;;;;2.45;1.40;;;10.70;54.10;;;;;;4993397;28;20515;-82
2021/10/20 05:33:44;;;;;;;2.17;1.70;;;10.90;53.90;;;;;;4993391;28;20041;-82
2021/10/20 05:36:10;;;;;;;2.47;1.52;;;11.00;53.70;;;;;;5011587;28;20511;-82
2021/10/20 05:38:37;;;;;;;3.92;1.63;;;11.10;53.40;;;;;;5011605;28;20040;-82
2021/10/20 05:41:03;;;;;;;2.33;1.77;;;11.20;53.20;;;;;;5001196;28;20097;-81
2021/10/20 05:43:29;;;;;;;4.90;1.83;;;11.30;53.10;;;;;;4993283;28;20927;-81
2021/10/20 05:45:55;;;;;;;3.45;1.90;;;11.40;53.00;;;;;;5010543;28;20030;-81
2021/10/20 05:48:23;;;;;;;3.03;2.53;;;11.50;52.70;;;;;;5009873;28;20032;-81
2021/10/20 05:50:50;;;;;;;19.73;12.50;;;11.70;52.80;;;;;;4992888;28;20075;-82
2021/10/20 05:53:16;;;;;;;15.48;9.60;;;11.80;53.10;;;;;;5011158;28;20402;-81
2021/10/20 05:55:43;;;;;;;15.43;8.18;;;11.90;53.30;;;;;;5011124;28;20033;-82
2021/10/20 05:58:10;;;;;;;11.63;6.97;;;12.00;53.00;;;;;;4989322;28;20145;-83
2021/10/20 06:00:36;;;;;;;9.00;5.65;;;12.10;53.00;;;;;;4989369;28;20038;-83
2021/10/20 06:03:03;;;;;;;6.18;4.55;;;12.20;53.00;;;;;;4991472;28;20497;-82
2021/10/20 06:05:29;;;;;;;6.72;4.68;;;12.30;53.10;;;;;;4991256;28;20050;-82
2021/10/20 06:07:56;;;;;;;6.22;4.13;;;12.40;53.30;;;;;;4989792;28;20068;-83
2021/10/20 06:10:22;;;;;;;6.68;3.20;;;12.50;53.30;;;;;;4990760;28;20036;-83
2021/10/20 06:12:48;;;;;;;4.20;2.55;;;12.60;53.10;;;;;;4990288;28;20464;-82
2021/10/20 06:15:15;;;;;;;3.63;2.40;;;12.70;53.10;;;;;;4996685;28;20026;-81
2021/10/20 06:17:41;;;;;;;3.40;2.30;;;12.80;53.10;;;;;;4975028;28;20031;-83
2021/10/20 06:20:08;;;;;;;4.57;2.00;;;12.80;53.00;;;;;;4988854;28;20033;-82
2021/10/20 06:22:34;;;;;;;2.38;1.85;;;12.80;53.00;;;;;;4991307;28;20058;-81
2021/10/20 06:25:00;;;;;;;4.57;1.80;;;12.90;53.00;;;;;;4990344;28;20045;-82
2021/10/20 06:27:26;;;;;;;4.68;1.63;;;12.90;52.90;;;;;;4984690;28;20042;-82
2021/10/20 06:29:52;;;;;;;1.85;1.30;;;13.00;52.90;;;;;;4990539;28;20390;-81
2021/10/20 06:32:18;;;;;;;3.88;1.52;;;13.10;52.90;;;;;;4990077;28;20038;-82
2021/10/20 06:34:44;;;;;;;3.10;1.10;;;13.10;52.90;;;;;;4967997;28;20030;-83
2021/10/20 06:37:10;;;;;;;2.40;1.10;;;13.20;53.00;;;;;;4988892;28;20034;-81
2021/10/20 06:39:37;;;;;;;4.00;1.38;;;13.30;53.10;;;;;;4990539;28;20034;-82
2021/10/20 06:42:03;;;;;;;4.20;1.15;;;13.30;53.00;;;;;;4996624;28;20026;-82
2021/10/20 06:44:29;;;;;;;1.63;1.20;;;13.40;53.10;;;;;;5004970;28;20437;-81
2021/10/20 06:46:56;;;;;;;1.33;1.13;;;13.50;52.90;;;;;;4989678;28;20031;-81
2021/10/20 06:49:22;;;;;;;3.67;1.52;;;13.50;52.90;;;;;;4989831;28;20030;-82
2021/10/20 06:51:48;;;;;;;2.58;1.67;;;13.50;52.90;;;;;;4989997;28;20073;-82
2021/10/20 06:54:20;;;;;;;1.45;0.90;;;13.50;52.40;;;;;;4990326;28;20108;-82
2021/10/20 06:56:51;;;;;;;2.92;1.30;;;13.60;52.50;;;;;;4986932;28;20931;-81
2021/10/20 06:59:17;;;;;;;1.90;1.48;;;13.60;52.20;;;;;;5005952;28;20046;-84
2021/10/20 07:01:43;;;;;;;3.75;1.23;;;13.70;52.40;;;;;;4999654;28;20120;-84
2021/10/20 07:04:11;;;;;;;4.03;1.30;;;13.70;52.40;;;;;;4990925;28;20275;-84
2021/10/20 07:06:38;;;;;;;2.13;1.30;;;13.60;52.00;;;;;;4983285;28;20033;-83
2021/10/20 07:09:08;;;;;;;1.33;1.17;;;13.60;51.10;;;;;;4991618;28;20435;-84
2021/10/20 07:11:34;;;;;;;3.38;1.70;;;13.60;50.30;;;;;;5009437;28;20523;-82
2021/10/20 07:14:00;;;;;;;22.15;12.70;;;13.60;49.60;;;;;;4991065;28;20125;-82
2021/10/20 07:16:26;;;;;;;10.23;6.93;;;13.60;49.40;;;;;;4991370;28;20243;-81
2021/10/20 07:18:52;;;;;;;12.05;5.88;;;13.50;49.00;;;;;;5008873;28;20101;-83
2021/10/20 07:21:18;;;;;;;9.50;5.30;;;13.50;48.90;;;;;;5008717;28;20028;-81
2021/10/20 07:23:45;;;;;;;5.70;4.00;;;13.40;48.80;;;;;;4990832;28;20030;-81
2021/10/20 07:26:11;;;;;;;4.80;3.03;;;13.40;48.80;;;;;;5007248;28;20100;-81
2021/10/20 07:28:39;;;;;;;4.47;2.35;;;13.40;48.90;;;;;;4977478;28;20065;-82
2021/10/20 07:31:05;;;;;;;5.25;2.17;;;13.30;49.40;;;;;;5009541;28;20041;-85
2021/10/20 07:33:31;;;;;;;2.45;1.98;;;13.20;49.30;;;;;;5008954;28;20038;-83
2021/10/20 07:35:57;;;;;;;2.85;1.80;;;13.10;49.30;;;;;;4990990;28;20041;-84
2021/10/20 07:38:23;;;;;;;5.28;1.77;;;13.10;49.40;;;;;;5009504;28;20252;-83
2021/10/20 07:40:49;;;;;;;4.10;1.70;;;13.10;50.00;;;;;;4992597;28;20112;-83
2021/10/20 07:43:15;;;;;;;2.70;1.90;;;13.10;50.10;;;;;;5009388;28;20164;-85
2021/10/20 07:45:41;;;;;;;2.42;1.80;;;13.10;49.80;;;;;;4986022;28;20045;-84
2021/10/20 07:48:07;;;;;;;1.92;1.70;;;13.00;50.00;;;;;;5008863;28;20034;-82
2021/10/20 07:50:33;;;;;;;4.75;1.63;;;13.00;49.90;;;;;;4990982;28;20468;-84
2021/10/20 07:53:00;;;;;;;3.38;1.83;;;12.90;49.80;;;;;;5005509;28;20412;-81
2021/10/20 07:55:26;;;;;;;3.70;1.95;;;12.90;50.00;;;;;;5006596;28;20717;-87
2021/10/20 07:57:53;;;;;;;3.10;1.83;;;12.80;50.10;;;;;;5007268;28;20050;-82
2021/10/20 08:00:21;;;;;;;3.05;2.20;;;12.70;50.30;;;;;;5007642;28;20034;-86
2021/10/20 08:02:46;;;;;;;5.30;2.03;;;12.70;50.70;;;;;;5009306;28;20504;-85
2021/10/20 08:05:14;;;;;;;4.03;1.70;;;12.60;50.70;;;;;;4995057;28;20034;-85
2021/10/20 08:07:47;;;;;;;4.40;1.80;;;12.60;50.70;;;;;;5011448;28;20041;-84
2021/10/20 08:10:19;;;;;;;6.05;2.03;;;12.50;50.70;;;;;;4994933;28;20025;-83
2021/10/20 08:12:46;;;;;;;4.40;1.70;;;12.50;50.70;;;;;;4994224;28;20416;-83
2021/10/20 08:15:14;;;;;;;5.47;1.88;;;12.40;50.90;;;;;;5012400;28;20117;-84
2021/10/20 08:17:41;;;;;;;3.50;1.75;;;12.30;51.00;;;;;;5012445;28;20120;-84
2021/10/20 08:20:09;;;;;;;2.80;1.77;;;12.30;51.00;;;;;;5010454;28;20076;-85
2021/10/20 08:22:38;;;;;;;4.45;1.80;;;12.30;51.20;;;;;;5007938;28;20037;-84
2021/10/20 08:25:06;;;;;;;2.47;1.80;;;12.20;51.10;;;;;;4993525;28;20076;-84
2021/10/20 08:27:32;;;;;;;2.20;1.60;;;12.20;51.30;;;;;;5012358;28;20037;-86
2021/10/20 08:29:58;;;;;;;4.57;2.10;;;12.10;51.50;;;;;;4994277;28;20124;-84
2021/10/20 08:32:24;;;;;;;3.75;1.80;;;12.10;51.30;;;;;;4994674;28;20060;-85
2021/10/20 08:34:50;;;;;;;2.28;1.80;;;12.10;51.10;;;;;;5012169;28;20096;-84
2021/10/20 08:37:17;;;;;;;2.47;1.83;;;12.10;51.10;;;;;;4978825;28;20025;-84
2021/10/20 08:39:44;;;;;;;3.10;2.15;;;12.00;51.00;;;;;;5012073;28;20117;-86
2021/10/20 08:42:11;;;;;;;3.55;2.00;;;12.00;51.00;;;;;;4995615;28;20034;-86
2021/10/20 08:44:37;;;;;;;3.88;1.75;;;12.00;51.30;;;;;;5011937;28;20037;-85
2021/10/20 08:47:04;;;;;;;4.65;1.90;;;12.00;51.30;;;;;;4995455;28;20033;-85
2021/10/20 08:49:31;;;;;;;3.65;2.13;;;12.00;51.30;;;;;;5010174;28;20543;-84
2021/10/20 08:51:57;;;;;;;3.80;2.22;;;11.90;51.40;;;;;;5011931;28;20447;-86
2021/10/20 08:54:24;;;;;;;4.28;2.00;;;12.00;51.40;;;;;;4983609;28;20124;-83
2021/10/20 08:56:49;;;;;;;3.45;2.03;;;11.90;51.30;;;;;;4992004;28;20032;-85
2021/10/20 08:59:16;;;;;;;3.10;2.15;;;11.90;51.30;;;;;;4992810;28;20046;-84
2021/10/20 09:01:43;;;;;;;1.90;1.70;;;11.90;51.30;;;;;;4986295;28;20045;-85
2021/10/20 09:04:10;;;;;;;4.28;2.15;;;11.90;52.20;;;;;;4988496;28;20102;-85
2021/10/20 09:06:36;;;;;;;2.45;2.00;;;11.90;51.40;;;;;;5011116;28;20046;-84
2021/10/20 09:09:09;;;;;;;2.08;1.80;;;11.90;51.50;;;;;;5011678;28;20164;-82
2021/10/20 09:11:36;;;;;;;9.45;2.33;;;11.80;51.60;;;;;;4993024;28;20121;-82
2021/10/20 09:14:14;;;;;;;4.72;2.10;;;11.90;51.50;;;;;;4980047;28;20473;-80
2021/10/20 09:16:42;;;;;;;4.20;1.70;;;11.80;50.70;;;;;;5006786;28;20033;-86
2021/10/20 09:19:10;;;;;;;3.10;1.83;;;11.80;50.30;;;;;;4986477;28;20124;-81
2021/10/20 09:21:48;;;;;;;3.08;2.10;;;11.70;50.00;;;;;;4988771;28;20199;-85
2021/10/20 09:24:14;;;;;;;4.95;2.42;;;11.70;50.30;;;;;;5006814;28;20057;-85
2021/10/20 09:26:40;;;;;;;2.10;1.92;;;11.60;50.40;;;;;;4989036;28;20103;-85
2021/10/20 09:29:31;;;;;;;3.95;1.70;;;11.60;50.40;;;;;;5004453;28;20046;-84
2021/10/20 09:31:57;;;;;;;4.25;1.65;;;11.60;50.10;;;;;;4981935;28;20038;-84
2021/10/20 09:34:35;;;;;;;3.63;1.70;;;11.50;50.00;;;;;;5006060;28;20037;-84
2021/10/20 09:37:03;;;;;;;2.47;2.00;;;11.50;49.90;;;;;;4989452;28;20029;-85
2021/10/20 09:39:29;;;;;;;5.07;1.60;;;11.50;49.90;;;;;;5011300;28;20040;-86
2021/10/20 09:42:06;;;;;;;6.78;2.20;;;11.50;50.10;;;;;;4988806;28;20026;-86
2021/10/20 09:44:45;;;;;;;1.98;1.30;;;11.50;49.90;;;;;;5008277;28;20041;-86
2021/10/20 09:47:11;;;;;;;1.38;1.27;;;11.50;50.00;;;;;;4988701;28;20041;-87
2021/10/20 09:49:47;;;;;;;1.90;1.50;;;11.50;50.00;;;;;;4985192;28;20042;-87
2021/10/20 09:52:13;;;;;;;3.17;1.90;;;11.50;49.80;;;;;;5007006;28;20061;-87
2021/10/20 09:54:41;;;;;;;4.38;1.60;;;11.50;49.90;;;;;;4987735;28;20480;-85
2021/10/20 09:57:07;;;;;;;5.28;1.50;;;11.50;49.80;;;;;;5007496;28;20099;-88
2021/10/20 09:59:33;;;;;;;2.60;1.65;;;11.50;50.00;;;;;;5006769;28;20600;-89
2021/10/20 10:01:59;;;;;;;5.00;1.60;;;11.40;49.90;;;;;;5006516;28;20124;-91
2021/10/20 10:04:26;;;;;;;3.42;1.55;;;11.40;49.80;;;;;;4994304;28;20092;-90
2021/10/20 10:06:52;;;;;;;4.18;1.67;;;11.40;49.90;;;;;;4972958;28;20080;-91
2021/10/20 10:09:19;;;;;;;6.28;1.83;;;11.40;49.80;;;;;;4974756;28;20057;-95
2021/10/20 10:11:54;;;;;;;3.08;1.50;;;11.40;50.00;;;;;;4988667;28;20053;-91
2021/10/20 10:14:24;;;;;;;;;;;11.40;50.00;;;;;;4989293;28;20053;-94
2021/10/20 10:16:59;;;;;;;2.40;1.67;;;11.40;49.90;;;;;;5010357;28;20036;-94
2021/10/20 10:19:28;;;;;;;4.70;1.75;;;11.40;49.80;;;;;;4994477;28;20034;-92
2021/10/20 10:21:54;;;;;;;3.10;1.40;;;11.40;49.70;;;;;;4977437;28;20185;-90
2021/10/20 10:24:20;;;;;;;3.88;1.70;;;11.40;49.60;;;;;;4995415;28;20463;-90
2021/10/20 10:27:05;;;;;;;2.42;1.88;;;11.40;49.70;;;;;;5006859;28;20469;-89
2021/10/20 10:29:34;;;;;;;2.85;1.40;;;11.30;49.50;;;;;;5012902;28;20057;-91
2021/10/20 10:32:05;;;;;;;4.22;1.83;;;11.40;49.80;;;;;;5020625;28;20014;-89
2021/10/20 10:34:37;;;;;;;4.40;1.55;;;11.30;49.70;;;;;;5034998;28;20037;-86
2021/10/20 10:37:05;;;;;;;2.60;1.73;;;11.30;49.70;;;;;;5018438;28;20034;-88
2021/10/20 10:39:32;;;;;;;2.20;1.42;;;11.30;49.40;;;;;;5015071;28;20037;-87
2021/10/20 10:42:05;;;;;;;4.78;1.70;;;11.30;49.30;;;;;;4993631;28;20492;-87
2021/10/20 10:44:52;;;;;;;8.93;1.50;;;11.30;49.10;;;;;;5010635;28;20133;-88
2021/10/20 10:47:21;;;;;;;3.85;1.52;;;11.30;48.90;;;;;;5011721;28;20121;-90
2021/10/20 10:49:55;;;;;;;5.65;1.63;;;11.20;48.70;;;;;;4986147;28;20408;-91
2021/10/20 10:52:34;;;;;;;1.42;1.30;;;11.20;48.90;;;;;;5010170;28;20060;-88
2021/10/20 10:55:22;;;;;;;3.33;1.38;;;11.20;49.00;;;;;;5007699;28;20060;-91
2021/10/20 10:57:58;;;;;;;2.70;1.48;;;11.20;49.20;;;;;;4977491;28;20037;-90
2021/10/20 11:00:47;;;;;;;3.42;1.70;;;11.20;49.30;;;;;;4980228;28;20469;-92
2021/10/20 11:03:16;;;;;;;3.50;1.52;;;11.20;49.40;;;;;;4990909;28;20449;-91
2021/10/20 11:06:00;;;;;;;2.42;1.67;;;11.20;49.30;;;;;;4985505;28;20030;-89
2021/10/20 11:08:28;;;;;;;6.30;1.90;;;11.10;49.20;;;;;;5010706;28;20112;-91
2021/10/20 11:10:54;;;;;;;2.75;1.60;;;11.20;49.30;;;;;;4992275;28;20038;-93
2021/10/20 11:13:21;;;;;;;3.10;1.33;;;11.10;49.20;;;;;;4982121;28;20492;-93
2021/10/20 11:15:48;;;;;;;6.25;1.67;;;11.10;49.20;;;;;;4982062;28;20052;-93
2021/10/20 11:18:15;;;;;;;6.28;1.70;;;11.10;49.10;;;;;;4997392;28;20117;-93
2021/10/20 11:20:43;;;;;;;4.93;1.50;;;11.10;49.20;;;;;;4997686;28;20029;-92
2021/10/20 11:23:13;;;;;;;2.78;1.63;;;11.10;49.20;;;;;;4996051;28;20065;-93
2021/10/20 11:25:44;;;;;;;2.22;1.17;;;11.10;49.80;;;;;;5015310;28;20046;-93
2021/10/20 11:28:10;;;;;;;2.63;1.33;;;11.10;49.10;;;;;;5012785;28;20089;-93
2021/10/20 11:30:38;;;;;;;3.15;1.70;;;11.10;49.00;;;;;;5018540;28;20060;-88
2021/10/20 11:33:12;;;;;;;3.60;1.50;;;11.10;48.90;;;;;;5018494;28;20033;-90
2021/10/20 11:35:39;;;;;;;2.47;1.70;;;11.10;48.90;;;;;;5020630;28;20041;-90
2021/10/20 11:38:09;;;;;;;3.38;1.60;;;11.10;49.10;;;;;;5030073;28;20057;-91
2021/10/20 11:40:39;;;;;;;3.08;1.92;;;11.10;49.00;;;;;;4985633;28;20062;-92
2021/10/20 11:43:26;;;;;;;4.60;1.60;;;11.10;49.10;;;;;;4992988;28;20049;-90
2021/10/20 11:45:52;;;;;;;3.17;1.50;;;11.10;49.10;;;;;;5004006;28;20480;-90
2021/10/20 11:48:24;;;;;;;4.90;1.50;;;11.10;49.30;;;;;;5001713;28;20029;-92
2021/10/20 11:50:57;;;;;;;2.58;1.40;;;11.10;49.30;;;;;;5017566;28;20034;-90
2021/10/20 11:53:23;;;;;;;2.83;1.73;;;11.10;48.90;;;;;;5024932;28;20030;-91
2021/10/20 11:55:54;;;;;;;2.50;1.55;;;11.10;48.80;;;;;;5012779;28;20086;-86
2021/10/20 11:58:21;;;;;;;2.05;1.40;;;11.10;48.90;;;;;;4987920;28;20061;-93
2021/10/20 12:00:51;;;;;;;4.90;1.35;;;11.10;48.80;;;;;;4995950;28;20037;-89
2021/10/20 12:03:17;;;;;;;2.88;1.13;;;11.10;48.70;;;;;;4997160;28;20117;-92
2021/10/20 12:05:43;;;;;;;2.65;1.38;;;11.10;48.50;;;;;;5007052;28;20037;-91
2021/10/20 12:08:09;;;;;;;1.48;1.33;;;11.10;48.40;;;;;;4997489;28;20046;-92
2021/10/20 12:10:35;;;;;;;2.35;1.40;;;11.00;48.50;;;;;;5007954;28;20034;-90
2021/10/20 12:13:03;;;;;;;2.03;1.48;;;11.00;48.40;;;;;;5016912;28;20049;-92
2021/10/20 12:15:29;;;;;;;4.50;1.95;;;11.10;48.50;;;;;;5017150;28;20038;-90
2021/10/20 12:17:55;;;;;;;5.00;1.40;;;11.00;48.60;;;;;;5016458;28;20494;-90
2021/10/20 12:20:21;;;;;;;4.95;1.10;;;11.00;48.60;;;;;;4988812;28;20029;-89
2021/10/20 12:22:49;;;;;;;2.65;1.73;;;11.00;48.40;;;;;;5006658;28;20057;-85
2021/10/20 12:25:17;;;;;;;1.40;1.30;;;10.90;48.30;;;;;;4992131;28;20037;-87
2021/10/20 12:27:43;;;;;;;4.50;1.40;;;11.00;48.30;;;;;;5007402;28;20390;-89
2021/10/20 12:30:12;;;;;;;2.50;1.27;;;10.90;48.10;;;;;;5009310;28;20114;-87
2021/10/20 12:32:39;;;;;;;1.63;1.10;;;10.90;48.10;;;;;;5023442;28;20048;-88
2021/10/20 12:35:13;;;;;;;1.42;1.20;;;10.90;48.80;;;;;;5021453;28;21467;-88
2021/10/20 12:37:41;;;;;;;3.00;1.10;;;10.90;48.20;;;;;;5014060;28;20038;-88
2021/10/20 12:40:12;;;;;;;3.78;1.27;;;10.90;48.40;;;;;;5009551;28;20496;-87
2021/10/20 12:42:57;;;;;;;2.17;1.40;;;10.90;48.40;;;;;;4993542;28;20030;-88
2021/10/20 12:45:26;;;;;;;3.55;1.42;;;10.90;48.60;;;;;;5014881;28;20089;-86
2021/10/20 12:47:55;;;;;;;3.05;1.40;;;10.80;48.50;;;;;;5013862;28;20038;-86
2021/10/20 12:50:25;;;;;;;3.92;1.30;;;10.80;48.40;;;;;;5013625;28;20061;-87